sensor_id;sensor_type;location;lat;lon;timestamp;pressure;altitude;pressure_sealevel;temperature
64600;BMP280;6553;48.412;9.514;2023-04-21T00:00:12;71665.00;;;19.89
64600;BMP280;6553;48.412;9.514;2023-04-21T00:02:38;71671.22;;;19.87
64600;BMP280;6553;48.412;9.514;2023-04-21T00:05:07;71667.25;;;19.88
64600;BMP280;6553;48.412;9.514;2023-04-21T00:07:36;71672.16;;;19.90
64600;BMP280;6553;48.412;9.514;2023-04-21T00:10:09;71674.28;;;19.92
64600;BMP280;6553;48.412;9.514;2023-04-21T00:12:35;71668.84;;;19.90
64600;BMP280;6553;48.412;9.514;2023-04-21T00:15:01;71666.06;;;19.90
64600;BMP280;6553;48.412;9.514;2023-04-21T00:17:28;71668.84;;;19.90
64600;BMP280;6553;48.412;9.514;2023-04-21T00:19:54;71667.25;;;19.88
64600;BMP280;6553;48.412;9.514;2023-04-21T00:22:19;71667.66;;;19.91
64600;BMP280;6553;48.412;9.514;2023-04-21T00:24:46;71668.72;;;19.92
64600;BMP280;6553;48.412;9.514;2023-04-21T00:27:12;71664.88;;;19.91
64600;BMP280;6553;48.412;9.514;2023-04-21T00:29:40;71666.59;;;19.90
64600;BMP280;6553;48.412;9.514;2023-04-21T00:32:06;71672.78;;;19.88
64600;BMP280;6553;48.412;9.514;2023-04-21T00:34:34;71672.66;;;19.91
64600;BMP280;6553;48.412;9.514;2023-04-21T00:37:00;71668.31;;;19.89
64600;BMP280;6553;48.412;9.514;2023-04-21T00:39:27;71669.38;;;19.90
64600;BMP280;6553;48.412;9.514;2023-04-21T00:41:52;71672.03;;;19.93
64600;BMP280;6553;48.412;9.514;2023-04-21T00:44:18;71669.78;;;19.93
64600;BMP280;6553;48.412;9.514;2023-04-21T00:46:44;71670.97;;;19.92
64600;BMP280;6553;48.412;9.514;2023-04-21T00:49:10;71666.06;;;19.90
64600;BMP280;6553;48.412;9.514;2023-04-21T00:51:38;71669.91;;;19.91
64600;BMP280;6553;48.412;9.514;2023-04-21T00:54:07;71664.88;;;19.91
64600;BMP280;6553;48.412;9.514;2023-04-21T00:56:34;71671.50;;;19.92
64600;BMP280;6553;48.412;9.514;2023-04-21T00:59:01;71659.06;;;19.86
64600;BMP280;6553;48.412;9.514;2023-04-21T01:01:29;71673.09;;;19.94
64600;BMP280;6553;48.412;9.514;2023-04-21T01:03:59;71671.50;;;19.92
64600;BMP280;6553;48.412;9.514;2023-04-21T01:06:30;71672.56;;;19.93
64600;BMP280;6553;48.412;9.514;2023-04-21T01:08:59;71665.00;;;19.89
64600;BMP280;6553;48.412;9.514;2023-04-21T01:11:25;71668.72;;;19.92
64600;BMP280;6553;48.412;9.514;2023-04-21T01:13:53;71674.28;;;19.92
64600;BMP280;6553;48.412;9.514;2023-04-21T01:16:19;71673.75;;;19.92
64600;BMP280;6553;48.412;9.514;2023-04-21T01:18:46;71666.47;;;19.93
64600;BMP280;6553;48.412;9.514;2023-04-21T01:21:12;71670.97;;;19.92
64600;BMP280;6553;48.412;9.514;2023-04-21T01:23:42;71669.78;;;19.93
64600;BMP280;6553;48.412;9.514;2023-04-21T01:26:10;71671.91;;;19.95
64600;BMP280;6553;48.412;9.514;2023-04-21T01:28:37;71672.03;;;19.93
64600;BMP280;6553;48.412;9.514;2023-04-21T01:31:04;71673.59;;;19.94
64600;BMP280;6553;48.412;9.514;2023-04-21T01:33:30;71665.53;;;19.89
64600;BMP280;6553;48.412;9.514;2023-04-21T01:35:57;71667.66;;;19.91
64600;BMP280;6553;48.412;9.514;2023-04-21T01:38:23;71670.03;;;19.88
64600;BMP280;6553;48.412;9.514;2023-04-21T01:40:52;71670.44;;;19.91
64600;BMP280;6553;48.412;9.514;2023-04-21T01:43:23;71670.84;;;19.94
64600;BMP280;6553;48.412;9.514;2023-04-21T01:45:49;71665.44;;;19.92
64600;BMP280;6553;48.412;9.514;2023-04-21T01:48:15;71667.66;;;19.91
64600;BMP280;6553;48.412;9.514;2023-04-21T01:50:40;71672.56;;;19.93
64600;BMP280;6553;48.412;9.514;2023-04-21T01:53:09;71673.75;;;19.92
64600;BMP280;6553;48.412;9.514;2023-04-21T01:55:34;71674.28;;;19.92
64600;BMP280;6553;48.412;9.514;2023-04-21T01:58:00;71668.84;;;19.90
64600;BMP280;6553;48.412;9.514;2023-04-21T02:00:26;71671.50;;;19.92
64600;BMP280;6553;48.412;9.514;2023-04-21T02:02:52;71667.66;;;19.91
64600;BMP280;6553;48.412;9.514;2023-04-21T02:05:18;71678.63;;;19.94
64600;BMP280;6553;48.412;9.514;2023-04-21T02:07:45;71667.13;;;19.91
64600;BMP280;6553;48.412;9.514;2023-04-21T02:10:11;71672.56;;;19.93
64600;BMP280;6553;48.412;9.514;2023-04-21T02:12:37;71670.84;;;19.94
64600;BMP280;6553;48.412;9.514;2023-04-21T02:15:04;71669.25;;;19.93
64600;BMP280;6553;48.412;9.514;2023-04-21T02:17:30;71675.31;;;19.93
64600;BMP280;6553;48.412;9.514;2023-04-21T02:19:56;71676.38;;;19.94
64600;BMP280;6553;48.412;9.514;2023-04-21T02:22:22;71667.56;;;19.94
64600;BMP280;6553;48.412;9.514;2023-04-21T02:24:49;71669.78;;;19.93
64600;BMP280;6553;48.412;9.514;2023-04-21T02:27:15;71670.97;;;19.92
64600;BMP280;6553;48.412;9.514;2023-04-21T02:29:41;71667.13;;;19.91
64600;BMP280;6553;48.412;9.514;2023-04-21T02:32:07;71671.50;;;19.92
64600;BMP280;6553;48.412;9.514;2023-04-21T02:34:33;71668.84;;;19.90
64600;BMP280;6553;48.412;9.514;2023-04-21T02:36:59;71668.84;;;19.90
64600;BMP280;6553;48.412;9.514;2023-04-21T02:39:25;71669.78;;;19.93
64600;BMP280;6553;48.412;9.514;2023-04-21T02:41:51;71674.28;;;19.92
64600;BMP280;6553;48.412;9.514;2023-04-21T02:44:17;71666.59;;;19.90
64600;BMP280;6553;48.412;9.514;2023-04-21T02:46:43;71672.03;;;19.93
64600;BMP280;6553;48.412;9.514;2023-04-21T02:49:09;71677.56;;;19.93
64600;BMP280;6553;48.412;9.514;2023-04-21T02:51:36;71670.97;;;19.92
64600;BMP280;6553;48.412;9.514;2023-04-21T02:54:02;71672.03;;;19.93
64600;BMP280;6553;48.412;9.514;2023-04-21T02:56:28;71668.19;;;19.92
64600;BMP280;6553;48.412;9.514;2023-04-21T02:58:53;71671.38;;;19.95
64600;BMP280;6553;48.412;9.514;2023-04-21T03:01:19;71668.72;;;19.92
64600;BMP280;6553;48.412;9.514;2023-04-21T03:03:45;71666.47;;;19.93
64600;BMP280;6553;48.412;9.514;2023-04-21T03:06:11;71673.09;;;19.94
64600;BMP280;6553;48.412;9.514;2023-04-21T03:08:38;71670.84;;;19.94
64600;BMP280;6553;48.412;9.514;2023-04-21T03:11:04;71667.66;;;19.91
64600;BMP280;6553;48.412;9.514;2023-04-21T03:13:30;71675.88;;;19.94
64600;BMP280;6553;48.412;9.514;2023-04-21T03:15:56;71669.78;;;19.93
64600;BMP280;6553;48.412;9.514;2023-04-21T03:18:22;71669.78;;;19.93
64600;BMP280;6553;48.412;9.514;2023-04-21T03:20:49;71672.56;;;19.93
64600;BMP280;6553;48.412;9.514;2023-04-21T03:23:15;71669.25;;;19.93
64600;BMP280;6553;48.412;9.514;2023-04-21T03:25:41;71669.25;;;19.93
64600;BMP280;6553;48.412;9.514;2023-04-21T03:28:08;71671.50;;;19.92
64600;BMP280;6553;48.412;9.514;2023-04-21T03:30:33;71667.13;;;19.91
64600;BMP280;6553;48.412;9.514;2023-04-21T03:32:59;71668.72;;;19.92
64600;BMP280;6553;48.412;9.514;2023-04-21T03:35:25;71672.03;;;19.93
64600;BMP280;6553;48.412;9.514;2023-04-21T03:37:51;71667.00;;;19.93
64600;BMP280;6553;48.412;9.514;2023-04-21T03:40:17;71678.63;;;19.94
64600;BMP280;6553;48.412;9.514;2023-04-21T03:42:43;71674.28;;;19.92
64600;BMP280;6553;48.412;9.514;2023-04-21T03:45:09;71664.88;;;19.91
64600;BMP280;6553;48.412;9.514;2023-04-21T03:47:35;71669.78;;;19.93
64600;BMP280;6553;48.412;9.514;2023-04-21T03:50:05;71667.13;;;19.91
64600;BMP280;6553;48.412;9.514;2023-04-21T03:52:32;71670.84;;;19.94
64600;BMP280;6553;48.412;9.514;2023-04-21T03:54:58;71668.72;;;19.92
64600;BMP280;6553;48.412;9.514;2023-04-21T03:57:23;71675.31;;;19.93
64600;BMP280;6553;48.412;9.514;2023-04-21T03:59:49;71668.06;;;19.94
64600;BMP280;6553;48.412;9.514;2023-04-21T04:02:15;71673.59;;;19.94
64600;BMP280;6553;48.412;9.514;2023-04-21T04:04:41;71665.53;;;19.89
64600;BMP280;6553;48.412;9.514;2023-04-21T04:07:06;71676.91;;;19.95
64600;BMP280;6553;48.412;9.514;2023-04-21T04:09:33;71674.28;;;19.92
64600;BMP280;6553;48.412;9.514;2023-04-21T04:11:59;71668.19;;;19.92
64600;BMP280;6553;48.412;9.514;2023-04-21T04:14:24;71675.88;;;19.94
64600;BMP280;6553;48.412;9.514;2023-04-21T04:16:50;71670.31;;;19.94
64600;BMP280;6553;48.412;9.514;2023-04-21T04:19:16;71677.03;;;19.92
64600;BMP280;6553;48.412;9.514;2023-04-21T04:21:42;71667.78;;;19.89
64600;BMP280;6553;48.412;9.514;2023-04-21T04:24:07;71671.50;;;19.92
64600;BMP280;6553;48.412;9.514;2023-04-21T04:26:35;71663.84;;;19.90
64600;BMP280;6553;48.412;9.514;2023-04-21T04:29:03;71669.25;;;19.93
64600;BMP280;6553;48.412;9.514;2023-04-21T04:31:30;71670.97;;;19.92
64600;BMP280;6553;48.412;9.514;2023-04-21T04:33:57;71670.31;;;19.94
64600;BMP280;6553;48.412;9.514;2023-04-21T04:36:23;71668.72;;;19.92
64600;BMP280;6553;48.412;9.514;2023-04-21T04:38:50;71666.06;;;19.90
64600;BMP280;6553;48.412;9.514;2023-04-21T04:41:16;71665.53;;;19.89
64600;BMP280;6553;48.412;9.514;2023-04-21T04:43:42;71664.47;;;19.88
64600;BMP280;6553;48.412;9.514;2023-04-21T04:46:08;71661.72;;;19.88
64600;BMP280;6553;48.412;9.514;2023-04-21T04:48:37;71668.31;;;19.89
64600;BMP280;6553;48.412;9.514;2023-04-21T04:51:04;71671.50;;;19.92
64600;BMP280;6553;48.412;9.514;2023-04-21T04:53:30;71672.66;;;19.91
64600;BMP280;6553;48.412;9.514;2023-04-21T04:55:58;71672.56;;;19.93
64600;BMP280;6553;48.412;9.514;2023-04-21T04:58:24;71665.00;;;19.89
64600;BMP280;6553;48.412;9.514;2023-04-21T05:00:50;71667.00;;;19.93
64600;BMP280;6553;48.412;9.514;2023-04-21T05:03:16;71668.72;;;19.92
64600;BMP280;6553;48.412;9.514;2023-04-21T05:05:41;71671.38;;;19.95
64600;BMP280;6553;48.412;9.514;2023-04-21T05:08:07;71672.56;;;19.93
64600;BMP280;6553;48.412;9.514;2023-04-21T05:10:33;71670.84;;;19.94
64600;BMP280;6553;48.412;9.514;2023-04-21T05:12:59;71672.03;;;19.93
64600;BMP280;6553;48.412;9.514;2023-04-21T05:15:25;71666.47;;;19.93
64600;BMP280;6553;48.412;9.514;2023-04-21T05:17:50;71674.78;;;19.93
64600;BMP280;6553;48.412;9.514;2023-04-21T05:20:16;71672.56;;;19.93
64600;BMP280;6553;48.412;9.514;2023-04-21T05:22:42;71675.75;;;19.96
64600;BMP280;6553;48.412;9.514;2023-04-21T05:25:10;71679.03;;;19.97
64600;BMP280;6553;48.412;9.514;2023-04-21T05:27:39;71669.69;;;19.96
64600;BMP280;6553;48.412;9.514;2023-04-21T05:30:06;71668.06;;;19.94
64600;BMP280;6553;48.412;9.514;2023-04-21T05:32:32;71677.44;;;19.95
64600;BMP280;6553;48.412;9.514;2023-04-21T05:34:57;71670.84;;;19.94
64600;BMP280;6553;48.412;9.514;2023-04-21T05:37:25;71676.28;;;19.97
64600;BMP280;6553;48.412;9.514;2023-04-21T05:39:51;71681.28;;;19.96
64600;BMP280;6553;48.412;9.514;2023-04-21T05:42:17;71680.09;;;19.98
64600;BMP280;6553;48.412;9.514;2023-04-21T05:44:43;71681.28;;;19.96
64600;BMP280;6553;48.412;9.514;2023-04-21T05:47:08;71669.13;;;19.95
64600;BMP280;6553;48.412;9.514;2023-04-21T05:49:34;71677.84;;;19.98
64600;BMP280;6553;48.412;9.514;2023-04-21T05:52:00;71675.63;;;19.99
64600;BMP280;6553;48.412;9.514;2023-04-21T05:54:25;71676.81;;;19.97
64600;BMP280;6553;48.412;9.514;2023-04-21T05:56:51;71673.50;;;19.97
64600;BMP280;6553;48.412;9.514;2023-04-21T05:59:17;71676.81;;;19.97
64600;BMP280;6553;48.412;9.514;2023-04-21T06:01:43;71669.69;;;19.96
64600;BMP280;6553;48.412;9.514;2023-04-21T06:04:08;71667.00;;;19.93
64600;BMP280;6553;48.412;9.514;2023-04-21T06:06:34;71669.69;;;19.96
64600;BMP280;6553;48.412;9.514;2023-04-21T06:09:00;71680.63;;;19.98
64600;BMP280;6553;48.412;9.514;2023-04-21T06:11:26;71677.44;;;19.95
64600;BMP280;6553;48.412;9.514;2023-04-21T06:13:51;71677.31;;;19.98
64600;BMP280;6553;48.412;9.514;2023-04-21T06:16:19;71680.53;;;20.01
64600;BMP280;6553;48.412;9.514;2023-04-21T06:18:45;71677.31;;;19.98
64600;BMP280;6553;48.412;9.514;2023-04-21T06:21:10;71674.47;;;20.00
64600;BMP280;6553;48.412;9.514;2023-04-21T06:23:36;71672.66;;;19.91
64600;BMP280;6553;48.412;9.514;2023-04-21T06:26:06;71673.50;;;19.97
64600;BMP280;6553;48.412;9.514;2023-04-21T06:28:33;71683.31;;;20.01
64600;BMP280;6553;48.412;9.514;2023-04-21T06:31:01;71679.34;;;20.02
64600;BMP280;6553;48.412;9.514;2023-04-21T06:33:28;71673.94;;;20.00
64600;BMP280;6553;48.412;9.514;2023-04-21T06:35:54;71683.81;;;20.01
64600;BMP280;6553;48.412;9.514;2023-04-21T06:38:20;71681.56;;;20.02
64600;BMP280;6553;48.412;9.514;2023-04-21T06:40:46;71686.56;;;20.01
64600;BMP280;6553;48.412;9.514;2023-04-21T06:43:12;71681.69;;;19.99
64600;BMP280;6553;48.412;9.514;2023-04-21T06:45:38;71676.56;;;20.02
64600;BMP280;6553;48.412;9.514;2023-04-21T06:48:04;71676.56;;;20.02
64600;BMP280;6553;48.412;9.514;2023-04-21T06:50:30;71679.34;;;20.02
64600;BMP280;6553;48.412;9.514;2023-04-21T06:52:56;71683.19;;;20.03
64600;BMP280;6553;48.412;9.514;2023-04-21T06:55:21;71683.19;;;20.03
64600;BMP280;6553;48.412;9.514;2023-04-21T06:57:47;71682.00;;;20.05
64600;BMP280;6553;48.412;9.514;2023-04-21T07:00:14;71682.00;;;20.05
64600;BMP280;6553;48.412;9.514;2023-04-21T07:02:39;71679.22;;;20.05
64600;BMP280;6553;48.412;9.514;2023-04-21T07:05:06;71678.19;;;20.04
64600;BMP280;6553;48.412;9.514;2023-04-21T07:07:33;71678.81;;;20.02
64600;BMP280;6553;48.412;9.514;2023-04-21T07:09:59;71682.53;;;20.05
64600;BMP280;6553;48.412;9.514;2023-04-21T07:12:25;71680.94;;;20.04
64600;BMP280;6553;48.412;9.514;2023-04-21T07:14:50;71683.06;;;20.06
64600;BMP280;6553;48.412;9.514;2023-04-21T07:17:16;71687.44;;;20.07
64600;BMP280;6553;48.412;9.514;2023-04-21T07:19:42;71693.91;;;20.11
64600;BMP280;6553;48.412;9.514;2023-04-21T07:22:07;71693.81;;;20.13
64600;BMP280;6553;48.412;9.514;2023-04-21T07:24:33;71691.03;;;20.13
64600;BMP280;6553;48.412;9.514;2023-04-21T07:27:00;71694.22;;;20.16
64600;BMP280;6553;48.412;9.514;2023-04-21T07:29:27;71690.38;;;20.15
64600;BMP280;6553;48.412;9.514;2023-04-21T07:31:54;71698.69;;;20.15
64600;BMP280;6553;48.412;9.514;2023-04-21T07:34:20;71699.13;;;20.18
64600;BMP280;6553;48.412;9.514;2023-04-21T07:36:46;71703.88;;;20.23
64600;BMP280;6553;48.412;9.514;2023-04-21T07:39:12;71699.41;;;20.24
64600;BMP280;6553;48.412;9.514;2023-04-21T07:41:38;71703.88;;;20.23
64600;BMP280;6553;48.412;9.514;2023-04-21T07:44:03;71702.81;;;20.22
64600;BMP280;6553;48.412;9.514;2023-04-21T07:46:29;71703.25;;;20.25
64600;BMP280;6553;48.412;9.514;2023-04-21T07:48:58;71711.97;;;20.28
64600;BMP280;6553;48.412;9.514;2023-04-21T07:51:25;71702.06;;;20.26
64600;BMP280;6553;48.412;9.514;2023-04-21T07:53:52;71704.41;;;20.23
64600;BMP280;6553;48.412;9.514;2023-04-21T07:56:18;71704.94;;;20.24
64600;BMP280;6553;48.412;9.514;2023-04-21T07:58:45;71703.13;;;20.27
64600;BMP280;6553;48.412;9.514;2023-04-21T08:01:11;71703.66;;;20.28
64600;BMP280;6553;48.412;9.514;2023-04-21T08:03:36;71709.75;;;20.28
64600;BMP280;6553;48.412;9.514;2023-04-21T08:06:02;71710.25;;;20.29
64600;BMP280;6553;48.412;9.514;2023-04-21T08:08:28;71709.19;;;20.28
64600;BMP280;6553;48.412;9.514;2023-04-21T08:10:54;71709.75;;;20.28
64600;BMP280;6553;48.412;9.514;2023-04-21T08:13:20;71709.75;;;20.28
64600;BMP280;6553;48.412;9.514;2023-04-21T08:15:52;71708.25;;;20.24
64600;BMP280;6553;48.412;9.514;2023-04-21T08:18:18;71709.75;;;20.28
64600;BMP280;6553;48.412;9.514;2023-04-21T08:20:45;71706.97;;;20.28
64600;BMP280;6553;48.412;9.514;2023-04-21T08:23:13;71710.78;;;20.29
64600;BMP280;6553;48.412;9.514;2023-04-21T08:25:39;71710.25;;;20.29
64600;BMP280;6553;48.412;9.514;2023-04-21T08:28:05;71713.97;;;20.32
64600;BMP280;6553;48.412;9.514;2023-04-21T08:30:31;71709.59;;;20.31
64600;BMP280;6553;48.412;9.514;2023-04-21T08:32:57;71713.34;;;20.34
64600;BMP280;6553;48.412;9.514;2023-04-21T08:35:23;71722.47;;;20.40
64600;BMP280;6553;48.412;9.514;2023-04-21T08:37:49;71720.66;;;20.44
64600;BMP280;6553;48.412;9.514;2023-04-21T08:40:15;71733.34;;;20.45
64600;BMP280;6553;48.412;9.514;2023-04-21T08:42:41;71728.84;;;20.46
64600;BMP280;6553;48.412;9.514;2023-04-21T08:45:08;71723.53;;;20.41
64600;BMP280;6553;48.412;9.514;2023-04-21T08:47:37;71727.66;;;20.48
64600;BMP280;6553;48.412;9.514;2023-04-21T08:50:11;71722.88;;;20.43
64600;BMP280;6553;48.412;9.514;2023-04-21T08:52:37;71725.03;;;20.45
64600;BMP280;6553;48.412;9.514;2023-04-21T08:55:05;71733.75;;;20.48
64600;BMP280;6553;48.412;9.514;2023-04-21T08:57:32;71733.09;;;20.50
64600;BMP280;6553;48.412;9.514;2023-04-21T08:59:58;71735.22;;;20.52
64600;BMP280;6553;48.412;9.514;2023-04-21T09:02:23;71738.53;;;20.53
64600;BMP280;6553;48.412;9.514;2023-04-21T09:04:50;71737.34;;;20.54
64600;BMP280;6553;48.412;9.514;2023-04-21T09:07:32;71731.50;;;20.49
64600;BMP280;6553;48.412;9.514;2023-04-21T09:09:59;71734.59;;;20.54
64600;BMP280;6553;48.412;9.514;2023-04-21T09:12:26;71738.41;;;20.55
64600;BMP280;6553;48.412;9.514;2023-04-21T09:14:52;71735.22;;;20.52
64600;BMP280;6553;48.412;9.514;2023-04-21T09:17:23;71732.44;;;20.52
64600;BMP280;6553;48.412;9.514;2023-04-21T09:19:51;71743.31;;;20.58
64600;BMP280;6553;48.412;9.514;2023-04-21T09:22:17;71737.22;;;20.57
64600;BMP280;6553;48.412;9.514;2023-04-21T09:24:48;71735.13;;;20.55
64600;BMP280;6553;48.412;9.514;2023-04-21T09:27:15;71741.06;;;20.58
64600;BMP280;6553;48.412;9.514;2023-04-21T09:29:46;71743.72;;;20.61
64600;BMP280;6553;48.412;9.514;2023-04-21T09:32:17;71742.66;;;20.60
64600;BMP280;6553;48.412;9.514;2023-04-21T09:34:43;71741.72;;;20.56
64600;BMP280;6553;48.412;9.514;2023-04-21T09:37:12;71736.16;;;20.56
64600;BMP280;6553;48.412;9.514;2023-04-21T09:39:43;71732.88;;;20.55
64600;BMP280;6553;48.412;9.514;2023-04-21T09:42:10;71735.00;;;20.58
64600;BMP280;6553;48.412;9.514;2023-04-21T09:44:36;71735.53;;;20.58
64600;BMP280;6553;48.412;9.514;2023-04-21T09:47:03;71736.72;;;20.57
64600;BMP280;6553;48.412;9.514;2023-04-21T09:49:34;71738.41;;;20.55
64600;BMP280;6553;48.412;9.514;2023-04-21T09:52:01;71737.88;;;20.55
64600;BMP280;6553;48.412;9.514;2023-04-21T09:54:32;71739.47;;;20.57
64600;BMP280;6553;48.412;9.514;2023-04-21T09:57:02;71737.75;;;20.58
64600;BMP280;6553;48.412;9.514;2023-04-21T09:59:36;71735.63;;;20.55
64600;BMP280;6553;48.412;9.514;2023-04-21T10:02:06;71739.47;;;20.57
64600;BMP280;6553;48.412;9.514;2023-04-21T10:04:35;71737.34;;;20.54
64600;BMP280;6553;48.412;9.514;2023-04-21T10:07:01;71740.00;;;20.57
64600;BMP280;6553;48.412;9.514;2023-04-21T10:09:39;71736.16;;;20.56
64600;BMP280;6553;48.412;9.514;2023-04-21T10:12:06;71738.41;;;20.55
64600;BMP280;6553;48.412;9.514;2023-04-21T10:14:32;71741.19;;;20.55
64600;BMP280;6553;48.412;9.514;2023-04-21T10:17:07;71739.38;;;20.59
64600;BMP280;6553;48.412;9.514;2023-04-21T10:19:36;71737.22;;;20.57
64600;BMP280;6553;48.412;9.514;2023-04-21T10:22:09;71739.38;;;20.59
64600;BMP280;6553;48.412;9.514;2023-04-21T10:24:41;71742.66;;;20.60
64600;BMP280;6553;48.412;9.514;2023-04-21T10:27:11;71741.06;;;20.58
64600;BMP280;6553;48.412;9.514;2023-04-21T10:29:37;71738.16;;;20.61
64600;BMP280;6553;48.412;9.514;2023-04-21T10:32:03;71742.13;;;20.59
64600;BMP280;6553;48.412;9.514;2023-04-21T10:34:37;71745.44;;;20.60
64600;BMP280;6553;48.412;9.514;2023-04-21T10:39:50;71739.25;;;20.62
64600;BMP280;6553;48.412;9.514;2023-04-21T10:44:43;71744.25;;;20.61
64600;BMP280;6553;48.412;9.514;2023-04-21T10:47:10;71747.03;;;20.61
64600;BMP280;6553;48.412;9.514;2023-04-21T10:49:39;71738.16;;;20.61
64600;BMP280;6553;48.412;9.514;2023-04-21T10:52:07;71739.88;;;20.60
64600;BMP280;6553;48.412;9.514;2023-04-21T10:57:18;71745.44;;;20.60
64600;BMP280;6553;48.412;9.514;2023-04-21T10:59:46;71745.84;;;20.63
64600;BMP280;6553;48.412;9.514;2023-04-21T11:02:17;71745.31;;;20.62
64600;BMP280;6553;48.412;9.514;2023-04-21T11:04:44;71744.25;;;20.61
64600;BMP280;6553;48.412;9.514;2023-04-21T11:07:17;71739.88;;;20.60
64600;BMP280;6553;48.412;9.514;2023-04-21T11:09:45;71745.31;;;20.62
64600;BMP280;6553;48.412;9.514;2023-04-21T11:12:15;71740.94;;;20.61
64600;BMP280;6553;48.412;9.514;2023-04-21T11:14:45;71745.84;;;20.63
64600;BMP280;6553;48.412;9.514;2023-04-21T11:17:18;71744.16;;;20.64
64600;BMP280;6553;48.412;9.514;2023-04-21T11:19:53;71743.09;;;20.63
64600;BMP280;6553;48.412;9.514;2023-04-21T11:22:22;71745.84;;;20.63
64600;BMP280;6553;48.412;9.514;2023-04-21T11:24:53;71750.19;;;20.64
64600;BMP280;6553;48.412;9.514;2023-04-21T11:27:19;71742.66;;;20.60
64600;BMP280;6553;48.412;9.514;2023-04-21T11:29:48;71746.94;;;20.64
64600;BMP280;6553;48.412;9.514;2023-04-21T11:32:16;71743.09;;;20.63
64600;BMP280;6553;48.412;9.514;2023-04-21T11:34:42;71742.41;;;20.65
64600;BMP280;6553;48.412;9.514;2023-04-21T11:37:22;71743.63;;;20.63
64600;BMP280;6553;48.412;9.514;2023-04-21T11:39:48;71751.28;;;20.65
64600;BMP280;6553;48.412;9.514;2023-04-21T11:42:20;71742.94;;;20.65
64600;BMP280;6553;48.412;9.514;2023-04-21T11:44:47;71745.84;;;20.63
64600;BMP280;6553;48.412;9.514;2023-04-21T11:47:15;71747.44;;;20.64
64600;BMP280;6553;48.412;9.514;2023-04-21T11:49:55;71743.09;;;20.63
64600;BMP280;6553;48.412;9.514;2023-04-21T11:52:33;71742.41;;;20.65
64600;BMP280;6553;48.412;9.514;2023-04-21T11:57:30;71749.56;;;20.66
64600;BMP280;6553;48.412;9.514;2023-04-21T12:00:03;71746.78;;;20.66
64600;BMP280;6553;48.412;9.514;2023-04-21T12:02:31;71754.59;;;20.66
64600;BMP280;6553;48.412;9.514;2023-04-21T12:05:15;71749.69;;;20.64
64600;BMP280;6553;48.412;9.514;2023-04-21T12:07:44;71747.56;;;20.62
64600;BMP280;6553;48.412;9.514;2023-04-21T12:10:15;71747.44;;;20.64
64600;BMP280;6553;48.412;9.514;2023-04-21T12:12:41;71753.94;;;20.68
64600;BMP280;6553;48.412;9.514;2023-04-21T12:15:10;71750.63;;;20.67
64600;BMP280;6553;48.412;9.514;2023-04-21T12:17:48;71750.09;;;20.67
64600;BMP280;6553;48.412;9.514;2023-04-21T12:20:23;71751.16;;;20.68
64600;BMP280;6553;48.412;9.514;2023-04-21T12:22:49;71750.09;;;20.67
64600;BMP280;6553;48.412;9.514;2023-04-21T12:25:15;71745.63;;;20.68
64600;BMP280;6553;48.412;9.514;2023-04-21T12:27:52;71750.09;;;20.67
64600;BMP280;6553;48.412;9.514;2023-04-21T12:30:20;71746.25;;;20.66
64600;BMP280;6553;48.412;9.514;2023-04-21T12:32:45;71746.25;;;20.66
64600;BMP280;6553;48.412;9.514;2023-04-21T12:35:12;71750.63;;;20.67
64600;BMP280;6553;48.412;9.514;2023-04-21T12:37:38;71748.50;;;20.65
64600;BMP280;6553;48.412;9.514;2023-04-21T12:40:05;71750.09;;;20.67
64600;BMP280;6553;48.412;9.514;2023-04-21T12:42:32;71749.03;;;20.66
64600;BMP280;6553;48.412;9.514;2023-04-21T12:44:58;71752.88;;;20.67
64600;BMP280;6553;48.412;9.514;2023-04-21T12:47:23;71747.84;;;20.67
64600;BMP280;6553;48.412;9.514;2023-04-21T12:49:49;71747.34;;;20.67
64600;BMP280;6553;48.412;9.514;2023-04-21T12:52:15;71750.09;;;20.67
64600;BMP280;6553;48.412;9.514;2023-04-21T12:54:41;71753.94;;;20.68
64600;BMP280;6553;48.412;9.514;2023-04-21T12:57:07;71747.84;;;20.67
64600;BMP280;6553;48.412;9.514;2023-04-21T12:59:33;71750.63;;;20.67
64600;BMP280;6553;48.412;9.514;2023-04-21T13:01:59;71753.41;;;20.67
64600;BMP280;6553;48.412;9.514;2023-04-21T13:04:25;71748.38;;;20.68
64600;BMP280;6553;48.412;9.514;2023-04-21T13:06:51;71746.25;;;20.66
64600;BMP280;6553;48.412;9.514;2023-04-21T13:09:17;71747.84;;;20.67
64600;BMP280;6553;48.412;9.514;2023-04-21T13:11:42;71737.13;;;20.60
64600;BMP280;6553;48.412;9.514;2023-04-21T13:14:08;71751.16;;;20.68
64600;BMP280;6553;48.412;9.514;2023-04-21T13:16:34;71755.00;;;20.69
64600;BMP280;6553;48.412;9.514;2023-04-21T13:19:00;71752.22;;;20.69
64600;BMP280;6553;48.412;9.514;2023-04-21T13:21:25;71753.41;;;20.67
64600;BMP280;6553;48.412;9.514;2023-04-21T13:23:52;71748.38;;;20.68
64600;BMP280;6553;48.412;9.514;2023-04-21T13:26:18;71747.34;;;20.67
64600;BMP280;6553;48.412;9.514;2023-04-21T13:28:44;71750.63;;;20.67
64600;BMP280;6553;48.412;9.514;2023-04-21T13:31:09;71746.66;;;20.69
64600;BMP280;6553;48.412;9.514;2023-04-21T13:33:35;71745.63;;;20.68
64600;BMP280;6553;48.412;9.514;2023-04-21T13:36:02;71750.50;;;20.70
64600;BMP280;6553;48.412;9.514;2023-04-21T13:38:28;71749.56;;;20.66
64600;BMP280;6553;48.412;9.514;2023-04-21T13:40:54;71753.41;;;20.67
64600;BMP280;6553;48.412;9.514;2023-04-21T13:43:20;71753.28;;;20.70
64600;BMP280;6553;48.412;9.514;2023-04-21T13:45:46;71749.03;;;20.66
64600;BMP280;6553;48.412;9.514;2023-04-21T13:48:14;71748.91;;;20.68
64600;BMP280;6553;48.412;9.514;2023-04-21T13:50:40;71747.22;;;20.69
64600;BMP280;6553;48.412;9.514;2023-04-21T13:53:05;71755.53;;;20.69
64600;BMP280;6553;48.412;9.514;2023-04-21T13:55:31;71748.78;;;20.71
64600;BMP280;6553;48.412;9.514;2023-04-21T13:58:00;71746.66;;;20.69
64600;BMP280;6553;48.412;9.514;2023-04-21T14:00:26;71755.00;;;20.69
64600;BMP280;6553;48.412;9.514;2023-04-21T14:02:52;71755.00;;;20.69
64600;BMP280;6553;48.412;9.514;2023-04-21T14:05:18;71755.00;;;20.69
64600;BMP280;6553;48.412;9.514;2023-04-21T14:07:43;71751.69;;;20.68
64600;BMP280;6553;48.412;9.514;2023-04-21T14:10:10;71749.97;;;20.69
64600;BMP280;6553;48.412;9.514;2023-04-21T14:12:39;71744.03;;;20.66
64600;BMP280;6553;48.412;9.514;2023-04-21T14:15:05;71752.75;;;20.69
64600;BMP280;6553;48.412;9.514;2023-04-21T14:17:31;71750.50;;;20.70
64600;BMP280;6553;48.412;9.514;2023-04-21T14:19:57;71755.00;;;20.69
64600;BMP280;6553;48.412;9.514;2023-04-21T14:22:23;71752.63;;;20.72
64600;BMP280;6553;48.412;9.514;2023-04-21T14:24:49;71753.28;;;20.70
64600;BMP280;6553;48.412;9.514;2023-04-21T14:27:15;71753.16;;;20.72
64600;BMP280;6553;48.412;9.514;2023-04-21T14:29:40;71754.34;;;20.71